Time;durP1;ratioP1;P1;durP2;ratioP2;P2;SDS_P1;SDS_P2;PMS_P1;PMS_P2;Temp;Humidity;BMP_temperature;BMP_pressure;BME280_temperature;BME280_humidity;BME280_pressure;Samples;Min_cycle;Max_cycle;Signal;HPM_P1;HPM_P2
2022/09/06 00:01:13;;;;;;;11.40;7.97;;;;;;;10.99;89.28;95337.00;1632079;88;21008;-54
2022/09/06 00:03:42;;;;;;;9.25;8.28;;;;;;;10.98;89.02;95334.69;1632754;88;21504;-57
2022/09/06 00:06:12;;;;;;;15.68;8.73;;;;;;;11.00;88.85;95333.03;1632538;87;21511;-54
2022/09/06 00:08:40;;;;;;;10.38;7.87;;;;;;;11.03;88.66;95334.94;1618284;87;21222;-54
2022/09/06 00:11:09;;;;;;;8.65;7.60;;;;;;;10.97;88.43;95329.02;1622994;87;21096;-53
2022/09/06 00:13:37;;;;;;;11.05;7.87;;;;;;;10.86;88.57;95329.91;1605812;88;21521;-54
2022/09/06 00:16:10;;;;;;;9.88;7.62;;;;;;;10.74;88.70;95324.52;1618440;87;21025;-55
2022/09/06 00:18:38;;;;;;;14.35;8.35;;;;;;;10.66;89.09;95323.77;1618670;87;21065;-54
2022/09/06 00:21:16;;;;;;;10.10;7.58;;;;;;;10.66;89.30;95318.84;1626223;88;21276;-55
2022/09/06 00:23:45;;;;;;;12.75;7.87;;;;;;;10.67;89.52;95320.39;1629711;87;21001;-54
2022/09/06 00:26:13;;;;;;;11.30;8.63;;;;;;;10.70;89.56;95316.80;1627098;87;21018;-55
2022/09/06 00:28:42;;;;;;;9.28;8.38;;;;;;;10.70;89.59;95316.80;1626167;88;21489;-54
2022/09/06 00:31:19;;;;;;;10.40;8.20;;;;;;;10.71;89.55;95312.22;1618628;87;21085;-55
2022/09/06 00:33:48;;;;;;;13.15;8.60;;;;;;;10.73;89.40;95311.97;1628474;88;21913;-55
2022/09/06 00:36:16;;;;;;;12.78;8.35;;;;;;;10.77;89.02;95316.77;1632425;88;21104;-55
2022/09/06 00:38:45;;;;;;;10.82;8.23;;;;;;;10.78;88.75;95313.42;1631469;87;21060;-55
2022/09/06 00:41:14;;;;;;;9.75;8.08;;;;;;;10.73;88.69;95310.59;1639837;87;21000;-55
2022/09/06 00:43:43;;;;;;;9.00;8.10;;;;;;;10.69;88.79;95300.12;1636079;87;21060;-54
2022/09/06 00:46:14;;;;;;;10.93;8.85;;;;;;;10.63;88.76;95307.34;1618669;88;21866;-54
2022/09/06 00:48:43;;;;;;;10.88;7.12;;;;;;;10.57;88.74;95298.83;1622390;87;20985;-54
2022/09/06 00:51:12;;;;;;;12.63;8.48;;;;;;;10.60;88.82;95299.95;1630959;87;20993;-55
2022/09/06 00:53:40;;;;;;;12.80;8.68;;;;;;;10.58;89.22;95312.00;1618813;87;21005;-54
2022/09/06 00:56:08;;;;;;;11.95;8.18;;;;;;;10.60;89.03;95310.95;1624926;87;21044;-54
2022/09/06 00:58:37;;;;;;;13.62;9.05;;;;;;;10.55;88.85;95311.50;1634923;87;21089;-55
2022/09/06 01:01:06;;;;;;;11.18;8.13;;;;;;;10.49;88.80;95309.86;1618705;87;21038;-54
2022/09/06 01:03:34;;;;;;;10.18;7.97;;;;;;;10.46;88.74;95310.73;1628482;87;21481;-53
2022/09/06 01:06:23;;;;;;;8.70;7.55;;;;;;;10.43;88.51;95310.81;1629403;87;21190;-54
2022/09/06 01:09:11;;;;;;;10.45;8.23;;;;;;;10.42;88.67;95310.06;1615551;87;21017;-56
2022/09/06 01:12:08;;;;;;;9.28;6.97;;;;;;;10.41;88.72;95306.35;1621427;87;21871;-55
2022/09/06 01:14:48;;;;;;;13.65;8.60;;;;;;;10.40;89.04;95296.56;1621402;88;21621;-55
2022/09/06 01:17:38;;;;;;;14.43;7.90;;;;;;;10.45;89.11;95307.81;1631962;87;21043;-56
2022/09/06 01:20:29;;;;;;;11.70;7.95;;;;;;;10.51;89.11;95300.58;1629398;88;21625;-56
2022/09/06 01:23:45;;;;;;;9.45;7.40;;;;;;;10.53;88.77;95302.28;1625729;87;21064;-57
2022/09/06 01:26:41;;;;;;;13.70;8.40;;;;;;;10.49;88.94;95298.10;1631048;88;21232;-56
2022/09/06 01:29:31;;;;;;;10.85;8.35;;;;;;;10.45;88.86;95308.41;1631318;87;21104;-55
2022/09/06 01:32:31;;;;;;;8.88;7.35;;;;;;;10.39;88.59;95301.27;1623209;87;21647;-53
2022/09/06 01:35:39;;;;;;;11.18;8.15;;;;;;;10.35;88.42;95295.09;1630800;88;21552;-53
2022/09/06 01:38:07;;;;;;;8.85;7.80;;;;;;;10.28;88.39;95296.66;1622999;87;21076;-55
2022/09/06 01:40:35;;;;;;;10.55;8.35;;;;;;;10.25;88.67;95297.53;1612838;87;21632;-54
2022/09/06 01:43:08;;;;;;;8.48;7.28;;;;;;;10.23;88.63;95299.16;1615018;87;21037;-54
2022/09/06 01:46:16;;;;;;;10.15;7.37;;;;;;;10.15;88.88;95295.80;1625080;87;21095;-55
2022/09/06 01:48:52;;;;;;;9.98;7.37;;;;;;;10.11;89.30;95300.63;1620724;87;21021;-54
2022/09/06 01:51:38;;;;;;;11.55;7.72;;;;;;;10.07;89.46;95299.16;1625717;87;21129;-54
2022/09/06 01:54:38;;;;;;;10.90;7.65;;;;;;;10.04;89.51;95298.65;1623044;87;21253;-54
2022/09/06 01:57:19;;;;;;;22.75;7.95;;;;;;;10.02;89.98;95302.43;1612219;87;21104;-54
2022/09/06 02:00:10;;;;;;;11.68;7.45;;;;;;;9.93;89.77;95293.97;1628573;88;21013;-54
2022/09/06 02:02:53;;;;;;;19.37;9.50;;;;;;;9.91;90.31;95299.13;1626597;87;21013;-56
2022/09/06 02:05:37;;;;;;;8.90;7.83;;;;;;;9.92;90.50;95295.17;1622346;87;21012;-55
2022/09/06 02:08:17;;;;;;;10.88;9.30;;;;;;;9.96;90.58;95295.88;1634428;87;21143;-55
2022/09/06 02:11:00;;;;;;;12.23;7.92;;;;;;;9.92;90.51;95291.84;1604250;88;21136;-55
2022/09/06 02:13:35;;;;;;;11.03;7.87;;;;;;;9.93;90.63;95285.72;1597119;88;21162;-56
2022/09/06 02:16:05;;;;;;;9.70;7.72;;;;;;;9.96;90.64;95282.14;1615518;88;21069;-54
2022/09/06 02:18:40;;;;;;;11.80;7.53;;;;;;;9.96;90.65;95281.52;1598981;88;20992;-54
2022/09/06 02:21:10;;;;;;;12.50;7.75;;;;;;;10.01;90.87;95289.28;1618081;88;21271;-53
2022/09/06 02:23:39;;;;;;;14.70;8.88;;;;;;;10.03;90.80;95291.61;1628808;87;21014;-54
2022/09/06 02:26:22;;;;;;;15.08;8.68;;;;;;;10.01;90.82;95294.77;1623492;87;21147;-53
2022/09/06 02:28:50;;;;;;;23.32;8.85;;;;;;;10.03;90.96;95290.23;1607987;87;21413;-55
2022/09/06 02:31:34;;;;;;;10.68;7.95;;;;;;;10.05;90.87;95286.45;1627506;87;21545;-54
2022/09/06 02:34:03;;;;;;;11.05;7.75;;;;;;;10.02;90.76;95290.82;1640052;87;21249;-54
2022/09/06 02:36:32;;;;;;;13.58;8.28;;;;;;;10.01;91.22;95289.86;1632340;88;20993;-55
2022/09/06 02:39:01;;;;;;;14.28;8.98;;;;;;;9.99;91.05;95286.16;1634054;87;21017;-55
2022/09/06 02:41:29;;;;;;;12.82;9.05;;;;;;;9.92;91.13;95277.31;1632372;87;21149;-55
2022/09/06 02:43:58;;;;;;;16.45;9.48;;;;;;;9.91;91.45;95286.76;1629383;87;21170;-54
2022/09/06 02:46:26;;;;;;;12.70;9.00;;;;;;;9.95;91.82;95279.22;1619020;87;21261;-55
2022/09/06 02:48:55;;;;;;;13.38;8.38;;;;;;;10.03;91.90;95281.40;1617336;87;21065;-55
2022/09/06 02:51:25;;;;;;;12.05;8.43;;;;;;;10.06;91.75;95279.75;1618648;87;21045;-55
2022/09/06 02:53:53;;;;;;;16.80;9.15;;;;;;;10.07;91.91;95282.08;1627014;88;21048;-54
2022/09/06 02:56:21;;;;;;;11.12;9.10;;;;;;;10.15;92.12;95276.56;1629696;87;21182;-54
2022/09/06 02:58:50;;;;;;;13.20;8.13;;;;;;;10.21;91.65;95283.69;1622255;87;21217;-55
2022/09/06 03:01:20;;;;;;;12.20;8.45;;;;;;;10.22;91.21;95279.73;1631018;87;21047;-54
2022/09/06 03:03:49;;;;;;;35.65;10.75;;;;;;;10.17;91.24;95279.65;1633193;87;21036;-55
2022/09/06 03:06:18;;;;;;;17.90;9.25;;;;;;;10.21;91.41;95286.44;1589789;87;21547;-54
2022/09/06 03:08:47;;;;;;;14.65;9.43;;;;;;;10.22;91.24;95283.27;1624699;87;21081;-55
2022/09/06 03:11:15;;;;;;;14.93;9.25;;;;;;;10.21;91.24;95281.73;1619782;88;21254;-54
2022/09/06 03:13:43;;;;;;;8.15;7.08;;;;;;;10.22;91.15;95274.23;1622199;87;21041;-54
2022/09/06 03:16:12;;;;;;;10.78;7.47;;;;;;;10.21;90.66;95269.95;1622479;88;21239;-54
2022/09/06 03:18:42;;;;;;;9.63;7.87;;;;;;;10.13;90.31;95266.59;1631320;88;21517;-54
2022/09/06 03:21:10;;;;;;;9.50;7.40;;;;;;;10.05;89.94;95260.33;1632330;87;21075;-54
2022/09/06 03:23:39;;;;;;;12.35;8.08;;;;;;;9.97;89.93;95268.57;1601960;88;21262;-54
2022/09/06 03:26:08;;;;;;;10.80;6.67;;;;;;;9.94;90.08;95266.06;1620860;88;21029;-55
2022/09/06 03:28:36;;;;;;;9.93;7.47;;;;;;;9.98;89.98;95271.48;1622393;87;21092;-54
2022/09/06 03:31:04;;;;;;;10.15;7.33;;;;;;;9.97;89.55;95269.33;1630089;87;21018;-55
2022/09/06 03:33:33;;;;;;;10.78;7.92;;;;;;;9.98;89.42;95264.61;1625927;87;21033;-54
2022/09/06 03:36:02;;;;;;;35.85;12.28;;;;;;;9.92;89.28;95277.31;1625702;87;21241;-54
2022/09/06 03:38:31;;;;;;;39.03;11.68;;;;;;;9.84;89.67;95274.58;1620774;87;20997;-55
2022/09/06 03:40:59;;;;;;;9.70;8.23;;;;;;;9.82;90.31;95274.98;1623535;87;21013;-54
2022/09/06 03:43:28;;;;;;;12.65;7.12;;;;;;;9.85;90.63;95272.78;1625578;87;21067;-54
2022/09/06 03:45:57;;;;;;;11.88;8.25;;;;;;;9.90;90.83;95274.22;1620639;87;21113;-54
2022/09/06 03:48:26;;;;;;;11.00;9.03;;;;;;;9.94;91.12;95272.94;1618655;88;21169;-54
2022/09/06 03:50:55;;;;;;;11.88;8.75;;;;;;;10.02;91.45;95268.83;1621033;87;21016;-54
2022/09/06 03:53:24;;;;;;;18.82;8.63;;;;;;;10.07;90.95;95269.70;1615334;87;21267;-54
2022/09/06 03:55:52;;;;;;;17.35;9.53;;;;;;;10.08;90.76;95264.38;1590270;90;21112;-54
2022/09/06 03:58:21;;;;;;;11.55;8.63;;;;;;;10.06;90.38;95268.75;1575969;90;20999;-55
2022/09/06 04:00:52;;;;;;;13.58;8.88;;;;;;;9.99;90.19;95270.28;1574143;90;21534;-54
2022/09/06 04:03:21;;;;;;;15.63;8.93;;;;;;;9.91;90.43;95271.05;1601573;88;21505;-54
2022/09/06 04:05:50;;;;;;;17.80;11.40;;;;;;;9.87;90.80;95269.00;1603901;87;21043;-55
2022/09/06 04:08:18;;;;;;;19.25;10.28;;;;;;;9.88;91.37;95268.38;1598642;88;21619;-55
2022/09/06 04:10:55;;;;;;;12.40;9.35;;;;;;;9.94;91.80;95268.03;1623509;87;21151;-54
2022/09/06 04:13:25;;;;;;;15.10;9.45;;;;;;;10.04;91.61;95275.28;1623415;88;22155;-55
2022/09/06 04:15:53;;;;;;;15.80;8.93;;;;;;;10.06;91.56;95275.03;1632407;87;21020;-54
2022/09/06 04:18:23;;;;;;;10.08;8.55;;;;;;;10.07;90.97;95281.29;1589564;87;21011;-56
2022/09/06 04:20:52;;;;;;;13.93;9.25;;;;;;;10.01;90.98;95282.99;1631431;87;21065;-55
2022/09/06 04:23:20;;;;;;;21.60;9.18;;;;;;;9.97;90.81;95284.44;1607320;88;21524;-55
2022/09/06 04:25:54;;;;;;;11.57;8.70;;;;;;;9.95;91.11;95281.36;1635420;87;21243;-55
2022/09/06 04:28:22;;;;;;;10.13;8.25;;;;;;;10.00;91.42;95276.70;1620489;87;21011;-54
2022/09/06 04:30:56;;;;;;;13.00;8.53;;;;;;;10.08;91.31;95282.83;1627655;88;21496;-54
2022/09/06 04:33:25;;;;;;;15.38;10.05;;;;;;;10.06;91.02;95281.91;1591091;89;21007;-59
2022/09/06 04:35:57;;;;;;;13.85;10.28;;;;;;;10.03;91.12;95277.86;1601819;89;20994;-54
2022/09/06 04:38:26;;;;;;;15.20;10.00;;;;;;;10.04;91.41;95281.56;1594399;89;21103;-55
2022/09/06 04:40:55;;;;;;;18.20;10.85;;;;;;;10.06;91.53;95285.25;1594292;90;21447;-55
2022/09/06 04:43:24;;;;;;;23.32;13.20;;;;;;;10.12;91.65;95283.52;1552005;90;21103;-54
2022/09/06 04:45:53;;;;;;;20.08;13.90;;;;;;;10.20;91.93;95283.52;1589293;90;21495;-55
2022/09/06 04:48:22;;;;;;;16.30;10.25;;;;;;;10.30;91.72;95284.63;1579715;89;21020;-55
2022/09/06 04:50:50;;;;;;;15.83;9.68;;;;;;;10.35;91.23;95283.34;1598121;89;22989;-54
2022/09/06 04:53:18;;;;;;;14.55;11.20;;;;;;;10.33;90.53;95281.63;1603112;89;20991;-55
2022/09/06 04:55:47;;;;;;;10.93;9.33;;;;;;;10.33;90.62;95280.25;1593613;89;21486;-57
2022/09/06 04:58:15;;;;;;;11.55;9.65;;;;;;;10.42;91.07;95283.14;1582659;89;21023;-56
2022/09/06 05:00:44;;;;;;;93.35;14.87;;;;;;;10.55;90.85;95283.36;1580277;89;21049;-49
2022/09/06 05:03:13;;;;;;;14.33;10.18;;;;;;;10.63;90.07;95275.70;1604445;89;21139;-51
2022/09/06 05:05:41;;;;;;;18.23;11.63;;;;;;;10.62;89.61;95272.77;1599933;89;20986;-55
2022/09/06 05:08:10;;;;;;;17.48;12.40;;;;;;;10.61;89.42;95272.61;1591096;90;21102;-55
2022/09/06 05:10:40;;;;;;;18.82;12.28;;;;;;;10.57;89.50;95276.82;1580464;89;21112;-55
2022/09/06 05:13:10;;;;;;;22.13;12.80;;;;;;;10.57;89.43;95273.31;1591098;89;21115;-56
2022/09/06 05:15:38;;;;;;;26.23;11.83;;;;;;;10.57;90.10;95272.70;1579296;89;21160;-54
2022/09/06 05:18:07;;;;;;;20.10;11.68;;;;;;;10.67;90.14;95266.73;1583469;89;21090;-56
2022/09/06 05:20:36;;;;;;;16.85;12.05;;;;;;;10.80;89.78;95269.10;1594125;90;21063;-55
2022/09/06 05:23:05;;;;;;;20.68;12.20;;;;;;;10.86;89.05;95268.75;1593934;89;20999;-54
2022/09/06 05:25:34;;;;;;;20.35;12.73;;;;;;;10.88;88.50;95265.55;1620087;87;21040;-56
2022/09/06 05:28:02;;;;;;;25.68;13.00;;;;;;;10.81;88.28;95258.26;1624614;88;21878;-61
2022/09/06 05:30:31;;;;;;;18.70;9.90;;;;;;;10.87;88.55;95268.13;1621854;88;20976;-59
2022/09/06 05:32:59;;;;;;;24.60;10.88;;;;;;;10.88;87.90;95264.96;1630450;86;21026;-57
2022/09/06 05:35:28;;;;;;;13.30;8.03;;;;;;;10.85;87.78;95274.09;1656462;86;21087;-57
2022/09/06 05:37:57;;;;;;;11.38;8.50;;;;;;;10.89;87.72;95266.50;1644607;86;21081;-56
2022/09/06 05:40:25;;;;;;;21.55;9.88;;;;;;;10.91;87.48;95270.97;1652452;86;21253;-56
2022/09/06 05:42:53;;;;;;;34.67;16.90;;;;;;;10.90;87.40;95270.80;1659050;84;21017;-57
2022/09/06 05:45:22;;;;;;;16.10;9.80;;;;;;;10.93;87.32;95264.41;1594453;87;21011;-55
2022/09/06 05:47:49;;;;;;;12.60;9.53;;;;;;;10.99;86.96;95262.66;1611775;86;21082;-58
2022/09/06 05:50:18;;;;;;;11.95;10.03;;;;;;;11.06;87.15;95262.47;1658629;84;21030;-57
2022/09/06 05:52:46;;;;;;;13.58;9.10;;;;;;;11.15;87.32;95255.70;1652451;86;21349;-56
2022/09/06 05:55:15;;;;;;;15.98;10.23;;;;;;;11.30;87.48;95260.96;1663655;84;21279;-56
2022/09/06 05:57:43;;;;;;;15.85;10.13;;;;;;;11.44;87.51;95260.55;1630591;86;21087;-58
2022/09/06 06:00:13;;;;;;;14.80;9.40;;;;;;;11.57;86.84;95259.95;1661836;84;21104;-58
2022/09/06 06:02:41;;;;;;;15.78;8.58;;;;;;;11.62;86.27;95254.50;1656705;84;21590;-57
2022/09/06 06:05:10;;;;;;;15.23;8.70;;;;;;;11.64;85.76;95258.38;1653979;84;21246;-55
2022/09/06 06:07:40;;;;;;;14.03;8.93;;;;;;;11.68;85.31;95267.92;1659077;84;21038;-55
2022/09/06 06:10:09;;;;;;;23.80;9.38;;;;;;;11.66;84.76;95256.53;1638701;85;21080;-56
2022/09/06 06:12:37;;;;;;;17.95;9.03;;;;;;;11.63;84.54;95258.80;1645266;84;21566;-57
2022/09/06 06:15:06;;;;;;;18.70;7.45;;;;;;;11.68;84.41;95257.65;1649509;84;21056;-56
2022/09/06 06:17:35;;;;;;;9.68;7.33;;;;;;;11.74;84.01;95258.63;1643367;85;21249;-59
2022/09/06 06:20:03;;;;;;;11.28;8.58;;;;;;;11.79;83.74;95258.09;1654044;84;21118;-56
2022/09/06 06:22:31;;;;;;;10.72;7.90;;;;;;;11.82;83.60;95261.34;1641220;85;21227;-56
2022/09/06 06:25:00;;;;;;;18.80;8.20;;;;;;;11.93;83.70;95256.24;1641859;85;21078;-56
2022/09/06 06:27:28;;;;;;;16.57;8.03;;;;;;;11.95;83.12;95255.22;1660552;84;21069;-56
2022/09/06 06:29:56;;;;;;;16.42;8.65;;;;;;;12.01;83.38;95242.41;1658242;84;21334;-57
2022/09/06 06:32:25;;;;;;;12.23;7.53;;;;;;;12.11;82.62;95244.64;1598429;87;21090;-55
2022/09/06 06:34:53;;;;;;;17.75;8.28;;;;;;;12.15;82.33;95240.56;1615979;88;21122;-59
2022/09/06 06:37:22;;;;;;;10.48;8.08;;;;;;;12.24;82.34;95243.39;1598273;88;21546;-57
2022/09/06 06:39:51;;;;;;;22.70;8.20;;;;;;;12.33;82.05;95246.25;1600388;87;21109;-56
2022/09/06 06:42:19;;;;;;;12.47;9.05;;;;;;;12.44;81.47;95238.36;1596286;87;21237;-57
2022/09/06 06:44:52;;;;;;;12.95;7.70;;;;;;;12.49;81.18;95232.89;1598089;87;21058;-58
2022/09/06 06:47:20;;;;;;;12.33;7.45;;;;;;;12.61;80.90;95232.84;1595687;88;21043;-58
2022/09/06 06:49:49;;;;;;;10.38;7.67;;;;;;;12.72;80.18;95233.24;1611626;87;21159;-56
2022/09/06 06:52:16;;;;;;;11.65;7.50;;;;;;;12.76;79.62;95238.02;1621463;86;21054;-58
2022/09/06 06:54:48;;;;;;;38.48;9.75;;;;;;;12.79;78.78;95239.88;1594889;87;21898;-57
2022/09/06 06:57:16;;;;;;;13.70;8.93;;;;;;;12.82;78.54;95230.69;1644081;84;21654;-56
2022/09/06 06:59:45;;;;;;;10.70;7.60;;;;;;;12.92;78.50;95236.45;1644887;84;21576;-56
2022/09/06 07:02:16;;;;;;;19.25;13.32;;;;;;;13.07;78.35;95236.13;1623169;86;21202;-57
2022/09/06 07:04:44;;;;;;;9.95;7.80;;;;;;;13.23;77.54;95238.69;1613565;87;21051;-58
2022/09/06 07:07:11;;;;;;;11.68;8.20;;;;;;;13.37;76.47;95240.30;1599269;88;21337;-57
2022/09/06 07:09:40;;;;;;;13.70;9.25;;;;;;;13.50;76.11;95236.05;1605918;87;21574;-59
2022/09/06 07:12:09;;;;;;;10.65;8.65;;;;;;;13.59;75.53;95238.88;1591462;88;21038;-58
2022/09/06 07:14:37;;;;;;;10.43;8.40;;;;;;;13.69;75.18;95247.34;1647370;85;21052;-58
2022/09/06 07:17:05;;;;;;;15.80;7.85;;;;;;;13.81;74.89;95239.57;1653577;85;21135;-58
2022/09/06 07:19:34;;;;;;;11.45;6.47;;;;;;;13.93;74.79;95234.52;1650426;85;22096;-60
2022/09/06 07:22:03;;;;;;;13.48;7.17;;;;;;;14.04;74.87;95232.10;1654692;85;22184;-61
2022/09/06 07:24:32;;;;;;;14.60;7.72;;;;;;;14.12;74.61;95231.95;1645996;84;21067;-56
2022/09/06 07:27:00;;;;;;;10.85;8.00;;;;;;;14.24;74.58;95233.27;1646052;84;21071;-59
2022/09/06 07:29:27;;;;;;;11.33;7.72;;;;;;;14.36;74.00;95226.05;1648095;84;21107;-58
2022/09/06 07:31:56;;;;;;;16.48;7.78;;;;;;;14.44;73.75;95230.20;1654419;84;21234;-59
2022/09/06 07:34:25;;;;;;;9.65;6.97;;;;;;;14.59;73.98;95224.85;1655046;84;21586;-55
2022/09/06 07:36:55;;;;;;;12.78;7.20;;;;;;;14.76;73.68;95234.36;1651036;84;21068;-55
2022/09/06 07:39:23;;;;;;;12.03;7.78;;;;;;;14.91;73.35;95231.91;1645976;85;21035;-56
2022/09/06 07:41:51;;;;;;;18.10;7.90;;;;;;;15.03;72.83;95232.34;1642184;85;21132;-61
2022/09/06 07:44:20;;;;;;;15.95;7.95;;;;;;;15.16;72.91;95228.04;1650724;86;22228;-59
2022/09/06 07:46:47;;;;;;;16.02;8.00;;;;;;;15.28;72.65;95234.78;1623833;86;21060;-57
2022/09/06 07:49:15;;;;;;;10.72;7.08;;;;;;;15.42;72.21;95228.63;1577314;89;21065;-57
2022/09/06 07:51:44;;;;;;;11.05;7.00;;;;;;;15.55;71.14;95226.41;1621616;87;21023;-57
2022/09/06 07:54:12;;;;;;;11.83;7.92;;;;;;;15.64;70.95;95223.62;1614284;86;21088;-56
2022/09/06 07:56:41;;;;;;;11.55;8.08;;;;;;;15.71;70.44;95219.75;1599033;86;21294;-54
2022/09/06 07:59:09;;;;;;;15.65;9.25;;;;;;;15.81;69.60;95220.63;1613653;86;21154;-57
2022/09/06 08:01:38;;;;;;;14.25;8.53;;;;;;;15.95;69.86;95222.70;1609177;87;21071;-56
2022/09/06 08:04:09;;;;;;;12.80;8.30;;;;;;;16.13;69.29;95217.69;1604389;86;21109;-60
2022/09/06 08:06:40;;;;;;;12.93;8.20;;;;;;;16.30;68.84;95219.57;1582714;88;21054;-56
2022/09/06 08:09:08;;;;;;;13.62;8.03;;;;;;;16.49;68.59;95212.08;1616867;86;21030;-57
2022/09/06 08:11:38;;;;;;;14.98;8.65;;;;;;;16.70;67.87;95211.62;1603656;85;21030;-57
2022/09/06 08:14:07;;;;;;;13.75;8.28;;;;;;;16.86;66.45;95211.16;1600328;88;21047;-54
2022/09/06 08:16:36;;;;;;;14.55;8.25;;;;;;;16.94;65.29;95208.92;1613620;86;21517;-55
2022/09/06 08:19:07;;;;;;;16.42;8.53;;;;;;;17.00;65.18;95204.86;1618692;86;21206;-55
2022/09/06 08:21:34;;;;;;;12.23;9.05;;;;;;;17.08;64.98;95205.41;1649435;84;21303;-56
2022/09/06 08:24:07;;;;;;;13.15;9.25;;;;;;;17.26;64.73;95203.08;1645949;85;21535;-58
2022/09/06 08:26:38;;;;;;;10.63;8.28;;;;;;;17.43;65.28;95200.00;1618556;87;21040;-59
2022/09/06 08:29:06;;;;;;;11.73;8.65;;;;;;;17.57;63.99;95203.38;1608458;87;21106;-54
2022/09/06 08:31:35;;;;;;;11.75;8.33;;;;;;;17.59;63.56;95204.44;1601211;87;21073;-60
2022/09/06 08:34:05;;;;;;;9.63;7.83;;;;;;;17.59;62.49;95196.70;1605563;87;21468;-57
2022/09/06 08:36:33;;;;;;;15.05;9.05;;;;;;;17.58;62.40;95190.99;1607080;87;21085;-55
2022/09/06 08:39:03;;;;;;;12.10;8.65;;;;;;;17.67;62.36;95189.51;1605980;87;21136;-57
2022/09/06 08:41:41;;;;;;;15.93;8.45;;;;;;;17.82;62.46;95187.47;1602609;87;21072;-56
2022/09/06 08:44:12;;;;;;;17.48;8.38;;;;;;;17.98;62.00;95188.35;1593321;87;21098;-55
2022/09/06 08:46:56;;;;;;;10.50;7.45;;;;;;;18.18;61.25;95188.39;1603573;87;21222;-58
2022/09/06 08:49:26;;;;;;;12.65;8.08;;;;;;;18.35;60.08;95185.38;1649503;84;21662;-57
2022/09/06 08:52:08;;;;;;;13.13;7.85;;;;;;;18.43;59.53;95186.48;1644512;85;21434;-56
2022/09/06 08:54:45;;;;;;;13.50;9.00;;;;;;;18.34;58.43;95183.06;1643950;84;21123;-55
2022/09/06 08:57:49;;;;;;;12.98;7.42;;;;;;;18.27;58.95;95184.23;1616716;86;21138;-55
2022/09/06 09:00:16;;;;;;;12.43;8.18;;;;;;;18.17;58.57;95175.72;1640731;85;21223;-56
2022/09/06 09:02:55;;;;;;;10.23;7.30;;;;;;;17.98;59.35;95175.83;1636727;85;21152;-56
2022/09/06 09:05:29;;;;;;;9.13;6.90;;;;;;;17.88;59.76;95175.17;1622931;85;21072;-56
2022/09/06 09:08:09;;;;;;;10.38;7.90;;;;;;;17.80;59.43;95174.03;1620515;86;21157;-57
2022/09/06 09:10:49;;;;;;;11.70;7.08;;;;;;;17.71;59.30;95171.98;1627939;86;21618;-58
2022/09/06 09:13:40;;;;;;;8.55;6.47;;;;;;;17.71;59.54;95171.38;1644500;85;21237;-56
2022/09/06 09:16:09;;;;;;;16.27;7.15;;;;;;;17.77;59.14;95167.26;1630532;86;21546;-59
2022/09/06 09:18:38;;;;;;;8.20;6.42;;;;;;;17.97;59.86;95165.30;1639525;85;21159;-55
2022/09/06 09:21:06;;;;;;;10.13;7.47;;;;;;;18.16;59.18;95162.41;1643952;85;21564;-55
2022/09/06 09:23:35;;;;;;;10.80;7.00;;;;;;;18.27;58.09;95159.16;1645345;85;21603;-58
2022/09/06 09:26:06;;;;;;;10.03;6.75;;;;;;;18.41;59.14;95158.34;1620368;87;21301;-56
2022/09/06 09:28:34;;;;;;;11.25;6.42;;;;;;;18.57;59.98;95166.14;1652768;84;21023;-60
2022/09/06 09:31:02;;;;;;;11.10;6.05;;;;;;;18.68;59.24;95159.29;1648397;84;21127;-56
2022/09/06 09:33:37;;;;;;;9.58;6.90;;;;;;;18.92;59.81;95162.62;1646880;85;20986;-56
2022/09/06 09:36:11;;;;;;;8.73;6.15;;;;;;;19.23;57.74;95159.91;1649967;84;21040;-58
2022/09/06 09:38:44;;;;;;;11.50;5.45;;;;;;;19.58;57.30;95159.08;1640749;85;21160;-56
2022/09/06 09:41:34;;;;;;;9.13;6.08;;;;;;;19.98;58.16;95156.71;1639567;84;21502;-56
2022/09/06 09:44:05;;;;;;;9.13;6.00;;;;;;;20.30;56.03;95150.58;1655786;84;21007;-60
2022/09/06 09:46:35;;;;;;;9.60;5.42;;;;;;;20.59;54.83;95140.44;1596692;86;21157;-55
2022/09/06 09:49:25;;;;;;;6.72;5.53;;;;;;;20.77;52.25;95132.34;1642567;85;21355;-56
2022/09/06 09:52:11;;;;;;;12.88;5.95;;;;;;;20.88;51.41;95134.44;1628099;85;21134;-56
2022/09/06 09:54:43;;;;;;;9.03;5.75;;;;;;;20.98;51.71;95136.53;1639667;85;21215;-56
2022/09/06 09:57:18;;;;;;;8.90;5.95;;;;;;;21.13;51.55;95133.50;1624425;86;21023;-56
2022/09/06 09:59:50;;;;;;;11.20;5.62;;;;;;;21.34;51.16;95144.59;1635389;86;21071;-57
2022/09/06 10:02:30;;;;;;;10.10;5.47;;;;;;;21.67;50.88;95136.25;1629363;86;21107;-56
2022/09/06 10:05:04;;;;;;;6.97;4.90;;;;;;;21.98;49.79;95138.13;1608949;87;21275;-56
2022/09/06 10:07:33;;;;;;;7.28;5.25;;;;;;;22.19;47.36;95135.94;1592354;87;21589;-55
2022/09/06 10:10:07;;;;;;;9.55;5.47;;;;;;;22.13;48.09;95140.02;1588315;86;21027;-58
2022/09/06 10:12:37;;;;;;;9.00;5.58;;;;;;;21.97;47.79;95138.63;1589269;87;21098;-55
2022/09/06 10:15:07;;;;;;;5.62;5.03;;;;;;;21.79;47.72;95141.95;1610575;87;21087;-55
2022/09/06 10:17:51;;;;;;;6.47;4.60;;;;;;;21.53;47.99;95140.81;1616485;87;21131;-55
2022/09/06 10:20:19;;;;;;;8.43;5.00;;;;;;;21.64;49.27;95138.02;1592076;87;21072;-56
2022/09/06 10:22:58;;;;;;;10.08;7.50;;;;;;;22.14;48.32;95131.08;1591985;87;21602;-56
2022/09/06 10:25:46;;;;;;;6.42;4.80;;;;;;;22.84;47.72;95134.84;1615878;87;21109;-57
2022/09/06 10:28:33;;;;;;;9.05;4.65;;;;;;;23.46;45.29;95131.17;1649836;85;20982;-59
2022/09/06 10:31:30;;;;;;;6.12;4.28;;;;;;;23.87;43.94;95139.69;1651883;85;21298;-55
2022/09/06 10:34:18;;;;;;;7.08;3.92;;;;;;;24.28;42.89;95135.46;1649229;86;21099;-52
2022/09/06 10:37:06;;;;;;;9.40;4.65;;;;;;;24.67;42.01;95139.27;1652476;85;21077;-56
2022/09/06 10:39:43;;;;;;;9.60;4.22;;;;;;;25.00;41.35;95132.59;1651280;84;21542;-56
2022/09/06 10:42:44;;;;;;;6.03;4.75;;;;;;;25.21;41.10;95129.39;1654973;84;21585;-57
2022/09/06 10:45:20;;;;;;;6.28;4.42;;;;;;;25.10;40.58;95135.80;1651958;86;21798;-61
2022/09/06 10:48:12;;;;;;;7.80;3.55;;;;;;;25.00;40.90;95142.45;1626570;86;21105;-55
2022/09/06 10:51:00;;;;;;;8.95;4.12;;;;;;;24.98;41.27;95144.27;1615242;86;21114;-57
2022/09/06 10:53:57;;;;;;;9.28;4.03;;;;;;;24.89;40.71;95134.77;1602749;87;21121;-57
2022/09/06 10:56:48;;;;;;;8.18;3.47;;;;;;;24.54;41.10;95130.73;1579448;87;21573;-55
2022/09/06 10:59:34;;;;;;;5.55;3.75;;;;;;;24.36;42.19;95140.61;1597416;87;21196;-58
2022/09/06 11:02:36;;;;;;;6.37;3.90;;;;;;;24.54;41.33;95139.92;1599183;87;21129;-57
2022/09/06 11:05:13;;;;;;;7.50;4.20;;;;;;;25.06;42.19;95133.91;1562913;88;21226;-57
2022/09/06 11:07:43;;;;;;;7.22;3.67;;;;;;;25.57;39.85;95127.83;1581595;89;21898;-57
2022/09/06 11:10:30;;;;;;;5.95;3.90;;;;;;;26.00;40.22;95123.55;1610800;87;21097;-56
2022/09/06 11:13:15;;;;;;;9.20;4.50;;;;;;;26.40;38.40;95122.31;1606875;86;21827;-57
2022/09/06 11:16:13;;;;;;;8.63;3.87;;;;;;;26.79;38.87;95125.16;1600943;87;20909;-58
2022/09/06 11:18:52;;;;;;;7.92;3.80;;;;;;;27.28;38.91;95120.55;1599279;86;21124;-57
2022/09/06 11:21:53;;;;;;;10.05;3.95;;;;;;;27.82;38.36;95132.55;1620827;87;21566;-56
2022/09/06 11:24:40;;;;;;;5.90;3.52;;;;;;;28.30;37.61;95129.78;1634193;84;20971;-56
2022/09/06 11:27:29;;;;;;;7.72;3.45;;;;;;;28.68;36.12;95127.36;1640079;86;21957;-56
2022/09/06 11:29:57;;;;;;;9.45;4.08;;;;;;;28.87;34.04;95128.50;1605617;86;21103;-56
2022/09/06 11:32:39;;;;;;;6.53;3.90;;;;;;;28.83;33.48;95132.35;1642552;85;21100;-57
2022/09/06 11:35:10;;;;;;;4.53;3.62;;;;;;;28.95;34.31;95130.77;1647168;85;21106;-59
2022/09/06 11:37:44;;;;;;;4.42;3.25;;;;;;;29.17;34.63;95127.28;1610845;86;21081;-57
2022/09/06 11:40:21;;;;;;;6.58;3.50;;;;;;;29.22;33.97;95119.26;1650966;84;21334;-59
2022/09/06 11:42:57;;;;;;;4.90;3.27;;;;;;;29.22;33.13;95110.75;1624691;87;21440;-57
2022/09/06 11:45:40;;;;;;;8.53;3.55;;;;;;;29.22;33.28;95110.11;1647132;85;21060;-57
2022/09/06 11:48:35;;;;;;;7.95;3.65;;;;;;;29.26;33.42;95113.98;1611723;85;21116;-61
2022/09/06 11:51:09;;;;;;;5.22;3.42;;;;;;;29.29;33.38;95112.88;1651483;85;21097;-57
2022/09/06 11:53:59;;;;;;;8.28;3.87;;;;;;;29.37;32.34;95104.50;1635190;86;21260;-58
2022/09/06 11:56:42;;;;;;;5.15;3.65;;;;;;;29.47;33.96;95108.33;1643998;84;21125;-59